Terminal Aerodrome Forecast
Issued by NWS Bismarck, ND

Home | Current Version | Previous Version | Graphics & Text | Print | Product List | Glossary On
Versions: 1 2 3 4 5 6 7 8 9 10 11 12 13 14 15 16 17 18 19 20
000
FTUS43 KBIS 241406 AAB
TAFBIS
TAF AMD
KBIS 241406Z 2414/2512 31015G23KT P6SM SCT030 BKN040
     FM241600 32018G25KT P6SM BKN030
     FM242000 33019G27KT P6SM SCT050
     FM250200 35011KT P6SM FEW050
     FM251000 30005KT P6SM BKN070 BKN150=

USA.gov is the U.S. government's official web portal to all federal, state and local government web resources and services.